Alexandria, Indiana
Current Conditions -  °F | °C
As of 3:53 AM on Saturday 01 Nov 2014 (Local Time) from KMIE Reporting Station
Overcast Overcast  
Wind Chill: 22°   Ceiling: 3100
Heat Index: 33°   Visibility: 10mi
Dew Point: 26°   Wind: 20mph
Humidity: 75%   Direction: 360°N
Pressure: 30.16"   Gusts: 31mph
Location:  40.26°N, 85.67°W
Report Text: KMIE 010753Z AUTO 36017G27KT 10SM BKN031 BKN041 OVC049 01/M03 A3016 RMK AO2 PK WND 36027/0723 SLP217 T00061033
Loading
Personal Weather Stations






























Interactive Weather Map
Tropical Storm Tracking
New forecast layout! Learn more

10-Day Weather Forecast

Advertisements
Track Severe Weather on mobile